หน้าหลัก
METAR-TAF:

METAR-TAF

ท่าอากาศยาน :

Sumburgh, เชทแลนด์, สกอตแลนด์

ละติจูด: 59-53N, ลองจิจูด: 001-18W, ความสูง: 5 ม.

การสังเกตสภาพอากาศปัจจุบัน

รายงานได้ทำขึ้นเมื่อ 26 นาทีที่แล้ว ณ เวลา 23:50 UTC
ลม 7 นอตจากตะวันตกเฉียงเหนือ
อุณหภูมิ 8°C
ความชื้น 81%
ความกดอากาศ 1020 hPa
ทัศนวิสัย 10 กม. หรือมากกว่า

METAR: EGPB 182350Z AUTO 32007KT 9999 NCD 08/05 Q1020

เวลา: 01:16 (00:16 UTC)

การพยากรณ์

รายงานได้ทำขึ้นเมื่อ 1 ชั่วโมงและ 19 นาทีที่แล้ว ณ เวลา 22:57 UTC
การพยากรณ์มีผลตั้งแต่วันที่ 19 ณ เวลา 00 UTC จนถึงวันที่ 19 ณ เวลา 09 UTC
ลม 9 นอตจากตะวันตกเฉียงเหนือ
ทัศนวิสัย 10 กม. หรือมากกว่า
มีเมฆกระจายเป็นบางส่วนที่ความสูง 2000 ฟุต
กำลังกลายเป็น
ตั้งแต่วันที่ 19 ณ เวลา 06 UTC จนถึงวันที่ 19 ณ เวลา 09 UTC
ลม 10 นอตจากตะวันตกเฉียงใต้

TAF: EGPB 182257Z 1900/1909 32009KT 9999 SCT020 BECMG 1906/1909 23010KT

สังเกตการณ์สภาพอากาศและพยากรณ์อากาศของสนามบินมากกว่า 4000 แห่ง (รายงาน METAR และ TAF).

สถานีที่ดูได้จะแสดงไว้ด้วยจุดสีเหลืองและสีแดงบนแผนที่.

เลื่อนเมาส์ไปเหนือจุดเพื่อดูชื่อสถานี.

แล้วคลิกเพื่อดูสังเกตการณ์และการพยากรณ์สภาพอากาศ.

ในการเปลี่ยนแผนที่: คลิกที่ปุ่มสีเขียวที่มีกากบาทสีดำเพื่อซูมเข้า; ที่ปุ่มสีเขียวที่มีขีดเพื่อซูมออก; หรือที่ลูกศรสีเขียวเพื่อไปยังแผนที่ที่อยู่ติดกัน.


METAR-TAF: